sensor_id;sensor_type;location;lat;lon;timestamp;temperature;humidity
814;DHT22;389;48.710;9.392;2023-02-08T00:00:22;-3.90;95.00
814;DHT22;389;48.710;9.392;2023-02-08T00:02:48;-3.80;95.10
814;DHT22;389;48.710;9.392;2023-02-08T00:05:14;-3.90;95.00
814;DHT22;389;48.710;9.392;2023-02-08T00:07:40;-4.20;95.00
814;DHT22;389;48.710;9.392;2023-02-08T00:10:06;-4.00;95.10
814;DHT22;389;48.710;9.392;2023-02-08T00:12:33;-4.00;95.10
814;DHT22;389;48.710;9.392;2023-02-08T00:14:59;-3.90;95.30
814;DHT22;389;48.710;9.392;2023-02-08T00:17:27;-4.00;95.20
814;DHT22;389;48.710;9.392;2023-02-08T00:19:53;-4.00;95.10
814;DHT22;389;48.710;9.392;2023-02-08T00:22:19;-4.00;95.10
814;DHT22;389;48.710;9.392;2023-02-08T00:24:44;-4.10;95.00
814;DHT22;389;48.710;9.392;2023-02-08T00:27:10;-4.00;95.10
814;DHT22;389;48.710;9.392;2023-02-08T00:29:36;-4.30;94.90
814;DHT22;389;48.710;9.392;2023-02-08T00:32:03;-4.10;95.00
814;DHT22;389;48.710;9.392;2023-02-08T00:34:29;-4.10;95.00
814;DHT22;389;48.710;9.392;2023-02-08T00:36:54;-4.10;94.90
814;DHT22;389;48.710;9.392;2023-02-08T00:39:20;-4.20;94.70
814;DHT22;389;48.710;9.392;2023-02-08T00:41:46;-4.10;94.70
814;DHT22;389;48.710;9.392;2023-02-08T00:44:12;-4.20;94.60
814;DHT22;389;48.710;9.392;2023-02-08T00:46:38;-4.20;94.60
814;DHT22;389;48.710;9.392;2023-02-08T00:49:04;-4.30;94.50
814;DHT22;389;48.710;9.392;2023-02-08T00:51:29;-4.30;94.50
814;DHT22;389;48.710;9.392;2023-02-08T00:53:55;-4.30;94.50
814;DHT22;389;48.710;9.392;2023-02-08T00:56:21;-4.40;94.40
814;DHT22;389;48.710;9.392;2023-02-08T00:58:46;-4.40;94.30
814;DHT22;389;48.710;9.392;2023-02-08T01:01:12;-4.40;94.20
814;DHT22;389;48.710;9.392;2023-02-08T01:03:39;-4.40;94.30
814;DHT22;389;48.710;9.392;2023-02-08T01:06:09;-4.40;94.50
814;DHT22;389;48.710;9.392;2023-02-08T01:08:35;-4.60;94.10
814;DHT22;389;48.710;9.392;2023-02-08T01:11:09;-4.30;94.20
814;DHT22;389;48.710;9.392;2023-02-08T01:13:36;-4.50;94.00
814;DHT22;389;48.710;9.392;2023-02-08T01:16:12;-4.50;93.90
814;DHT22;389;48.710;9.392;2023-02-08T01:18:42;-4.50;94.00
814;DHT22;389;48.710;9.392;2023-02-08T01:21:13;-4.40;94.00
814;DHT22;389;48.710;9.392;2023-02-08T01:23:41;-4.40;93.90
814;DHT22;389;48.710;9.392;2023-02-08T01:26:07;-4.40;93.70
814;DHT22;389;48.710;9.392;2023-02-08T01:28:34;-4.30;93.70
814;DHT22;389;48.710;9.392;2023-02-08T01:31:04;-4.60;93.50
814;DHT22;389;48.710;9.392;2023-02-08T01:33:30;-4.40;93.60
814;DHT22;389;48.710;9.392;2023-02-08T01:35:56;-4.40;93.60
814;DHT22;389;48.710;9.392;2023-02-08T01:38:24;-4.40;93.60
814;DHT22;389;48.710;9.392;2023-02-08T01:40:50;-4.50;93.60
814;DHT22;389;48.710;9.392;2023-02-08T01:43:24;-4.40;93.70
814;DHT22;389;48.710;9.392;2023-02-08T01:45:53;-4.50;93.60
814;DHT22;389;48.710;9.392;2023-02-08T01:48:24;-4.50;93.70
814;DHT22;389;48.710;9.392;2023-02-08T01:50:58;-4.60;93.70
814;DHT22;389;48.710;9.392;2023-02-08T01:53:27;-4.70;93.60
814;DHT22;389;48.710;9.392;2023-02-08T01:55:59;-4.60;93.70
814;DHT22;389;48.710;9.392;2023-02-08T01:58:28;-4.60;93.70
814;DHT22;389;48.710;9.392;2023-02-08T02:00:56;-4.60;93.70
814;DHT22;389;48.710;9.392;2023-02-08T02:03:22;-4.70;93.70
814;DHT22;389;48.710;9.392;2023-02-08T02:05:53;-4.60;93.80
814;DHT22;389;48.710;9.392;2023-02-08T02:08:20;-4.70;93.70
814;DHT22;389;48.710;9.392;2023-02-08T02:10:47;-4.70;93.80
814;DHT22;389;48.710;9.392;2023-02-08T02:13:20;-4.70;93.80
814;DHT22;389;48.710;9.392;2023-02-08T02:15:46;-4.80;93.80
814;DHT22;389;48.710;9.392;2023-02-08T02:18:36;-4.70;93.90
814;DHT22;389;48.710;9.392;2023-02-08T02:24:26;-4.80;94.00
814;DHT22;389;48.710;9.392;2023-02-08T02:35:07;-4.70;94.40
814;DHT22;389;48.710;9.392;2023-02-08T02:40:29;-4.90;94.40
814;DHT22;389;48.710;9.392;2023-02-08T02:54:18;-4.90;94.50
814;DHT22;389;48.710;9.392;2023-02-08T02:56:51;-4.90;94.50
814;DHT22;389;48.710;9.392;2023-02-08T02:59:18;-5.00;94.50
814;DHT22;389;48.710;9.392;2023-02-08T03:01:45;-5.00;94.50
814;DHT22;389;48.710;9.392;2023-02-08T03:10:06;-5.00;94.80
814;DHT22;389;48.710;9.392;2023-02-08T03:21:08;-5.00;95.10
814;DHT22;389;48.710;9.392;2023-02-08T03:23:44;-5.00;95.30
814;DHT22;389;48.710;9.392;2023-02-08T03:28:55;-5.00;95.30
814;DHT22;389;48.710;9.392;2023-02-08T03:31:32;-5.10;95.30
814;DHT22;389;48.710;9.392;2023-02-08T03:34:16;-5.10;95.30
814;DHT22;389;48.710;9.392;2023-02-08T03:37:00;-5.10;95.30
814;DHT22;389;48.710;9.392;2023-02-08T03:39:29;-5.10;95.30
814;DHT22;389;48.710;9.392;2023-02-08T03:41:59;-5.10;95.30
814;DHT22;389;48.710;9.392;2023-02-08T03:44:43;-5.10;95.30
814;DHT22;389;48.710;9.392;2023-02-08T03:47:23;-5.10;95.20
814;DHT22;389;48.710;9.392;2023-02-08T03:49:51;-5.10;95.20
814;DHT22;389;48.710;9.392;2023-02-08T03:52:17;-5.10;95.20
814;DHT22;389;48.710;9.392;2023-02-08T03:54:52;-5.20;95.20
814;DHT22;389;48.710;9.392;2023-02-08T03:57:25;-5.20;95.20
814;DHT22;389;48.710;9.392;2023-02-08T04:00:00;-5.20;95.30
814;DHT22;389;48.710;9.392;2023-02-08T04:02:28;-5.20;95.40
814;DHT22;389;48.710;9.392;2023-02-08T04:04:56;-5.30;95.30
814;DHT22;389;48.710;9.392;2023-02-08T04:07:23;-5.30;95.30
814;DHT22;389;48.710;9.392;2023-02-08T04:09:48;-5.30;95.40
814;DHT22;389;48.710;9.392;2023-02-08T04:12:14;-5.30;95.30
814;DHT22;389;48.710;9.392;2023-02-08T04:14:40;-5.30;95.30
814;DHT22;389;48.710;9.392;2023-02-08T04:17:06;-5.40;95.20
814;DHT22;389;48.710;9.392;2023-02-08T04:19:31;-5.40;95.20
814;DHT22;389;48.710;9.392;2023-02-08T04:21:57;-5.40;95.20
814;DHT22;389;48.710;9.392;2023-02-08T04:26:50;-5.50;95.20
814;DHT22;389;48.710;9.392;2023-02-08T04:29:17;-5.50;95.20
814;DHT22;389;48.710;9.392;2023-02-08T04:31:42;-5.50;95.20
814;DHT22;389;48.710;9.392;2023-02-08T04:34:08;-5.50;95.20
814;DHT22;389;48.710;9.392;2023-02-08T04:36:33;-5.50;95.20
814;DHT22;389;48.710;9.392;2023-02-08T04:38:59;-5.50;95.30
814;DHT22;389;48.710;9.392;2023-02-08T04:41:24;-5.50;95.20
814;DHT22;389;48.710;9.392;2023-02-08T04:43:50;-5.60;95.20
814;DHT22;389;48.710;9.392;2023-02-08T04:46:16;-5.60;95.20
814;DHT22;389;48.710;9.392;2023-02-08T04:48:41;-5.60;95.20
814;DHT22;389;48.710;9.392;2023-02-08T04:51:07;-5.60;95.20
814;DHT22;389;48.710;9.392;2023-02-08T04:53:32;-5.60;95.20
814;DHT22;389;48.710;9.392;2023-02-08T04:55:59;-5.70;95.10
814;DHT22;389;48.710;9.392;2023-02-08T04:58:24;-5.70;95.30
814;DHT22;389;48.710;9.392;2023-02-08T05:00:50;-5.50;95.40
814;DHT22;389;48.710;9.392;2023-02-08T05:03:15;-5.50;95.50
814;DHT22;389;48.710;9.392;2023-02-08T05:05:41;-5.50;95.80
814;DHT22;389;48.710;9.392;2023-02-08T05:08:07;-5.60;95.80
814;DHT22;389;48.710;9.392;2023-02-08T05:10:32;-5.60;95.80
814;DHT22;389;48.710;9.392;2023-02-08T05:12:58;-5.60;95.80
814;DHT22;389;48.710;9.392;2023-02-08T05:15:23;-5.50;95.90
814;DHT22;389;48.710;9.392;2023-02-08T05:17:49;-5.60;95.70
814;DHT22;389;48.710;9.392;2023-02-08T05:20:15;-5.60;95.70
814;DHT22;389;48.710;9.392;2023-02-08T05:22:40;-5.60;95.60
814;DHT22;389;48.710;9.392;2023-02-08T05:25:06;-5.60;95.60
814;DHT22;389;48.710;9.392;2023-02-08T05:27:33;-5.60;95.60
814;DHT22;389;48.710;9.392;2023-02-08T05:29:59;-5.70;95.50
814;DHT22;389;48.710;9.392;2023-02-08T05:32:26;-5.60;95.70
814;DHT22;389;48.710;9.392;2023-02-08T05:34:51;-5.70;95.60
814;DHT22;389;48.710;9.392;2023-02-08T05:37:17;-5.70;95.60
814;DHT22;389;48.710;9.392;2023-02-08T05:39:42;-5.70;95.60
814;DHT22;389;48.710;9.392;2023-02-08T05:42:08;-5.70;95.60
814;DHT22;389;48.710;9.392;2023-02-08T05:44:34;-5.70;95.50
814;DHT22;389;48.710;9.392;2023-02-08T05:46:59;-5.70;95.50
814;DHT22;389;48.710;9.392;2023-02-08T05:49:25;-5.70;95.50
814;DHT22;389;48.710;9.392;2023-02-08T05:51:50;-5.80;95.40
814;DHT22;389;48.710;9.392;2023-02-08T05:54:16;-5.80;95.40
814;DHT22;389;48.710;9.392;2023-02-08T05:56:42;-5.60;95.50
814;DHT22;389;48.710;9.392;2023-02-08T05:59:09;-5.80;95.40
814;DHT22;389;48.710;9.392;2023-02-08T06:01:35;-5.80;95.40
814;DHT22;389;48.710;9.392;2023-02-08T06:04:00;-5.80;95.30
814;DHT22;389;48.710;9.392;2023-02-08T06:06:26;-5.90;95.30
814;DHT22;389;48.710;9.392;2023-02-08T06:08:52;-5.80;95.30
814;DHT22;389;48.710;9.392;2023-02-08T06:11:18;-5.90;95.20
814;DHT22;389;48.710;9.392;2023-02-08T06:13:44;-5.90;95.20
814;DHT22;389;48.710;9.392;2023-02-08T06:16:11;-6.00;95.20
814;DHT22;389;48.710;9.392;2023-02-08T06:18:37;-5.80;95.20
814;DHT22;389;48.710;9.392;2023-02-08T06:21:02;-6.00;95.10
814;DHT22;389;48.710;9.392;2023-02-08T06:23:28;-6.00;95.20
814;DHT22;389;48.710;9.392;2023-02-08T06:25:54;-6.00;95.20
814;DHT22;389;48.710;9.392;2023-02-08T06:28:20;-6.00;95.20
814;DHT22;389;48.710;9.392;2023-02-08T06:30:50;-6.10;95.10
814;DHT22;389;48.710;9.392;2023-02-08T06:33:16;-6.10;95.20
814;DHT22;389;48.710;9.392;2023-02-08T06:35:50;-6.00;95.30
814;DHT22;389;48.710;9.392;2023-02-08T06:38:16;-6.10;95.20
814;DHT22;389;48.710;9.392;2023-02-08T06:40:42;-6.10;95.20
814;DHT22;389;48.710;9.392;2023-02-08T06:43:10;-5.90;95.30
814;DHT22;389;48.710;9.392;2023-02-08T06:45:35;-6.10;95.20
814;DHT22;389;48.710;9.392;2023-02-08T06:48:01;-6.10;95.30
814;DHT22;389;48.710;9.392;2023-02-08T06:50:27;-6.00;95.40
814;DHT22;389;48.710;9.392;2023-02-08T06:52:52;-6.00;95.40
814;DHT22;389;48.710;9.392;2023-02-08T06:55:18;-6.00;95.30
814;DHT22;389;48.710;9.392;2023-02-08T06:57:43;-6.00;95.30
814;DHT22;389;48.710;9.392;2023-02-08T07:00:09;-6.00;95.30
814;DHT22;389;48.710;9.392;2023-02-08T07:02:35;-6.00;95.30
814;DHT22;389;48.710;9.392;2023-02-08T07:05:01;-6.00;95.30
814;DHT22;389;48.710;9.392;2023-02-08T07:07:26;-6.00;95.30
814;DHT22;389;48.710;9.392;2023-02-08T07:09:52;-6.00;95.30
814;DHT22;389;48.710;9.392;2023-02-08T07:12:18;-6.00;95.40
814;DHT22;389;48.710;9.392;2023-02-08T07:14:43;-5.80;95.50
814;DHT22;389;48.710;9.392;2023-02-08T07:17:10;-5.90;95.60
814;DHT22;389;48.710;9.392;2023-02-08T07:19:36;-5.80;95.60
814;DHT22;389;48.710;9.392;2023-02-08T07:22:02;-5.80;95.70
814;DHT22;389;48.710;9.392;2023-02-08T07:24:38;-5.70;95.80
814;DHT22;389;48.710;9.392;2023-02-08T07:27:05;-5.70;95.90
814;DHT22;389;48.710;9.392;2023-02-08T07:29:32;-5.70;95.80
814;DHT22;389;48.710;9.392;2023-02-08T07:31:59;-5.60;95.90
814;DHT22;389;48.710;9.392;2023-02-08T07:34:27;-5.50;96.10
814;DHT22;389;48.710;9.392;2023-02-08T07:36:52;-5.50;96.10
814;DHT22;389;48.710;9.392;2023-02-08T07:39:18;-5.40;96.50
814;DHT22;389;48.710;9.392;2023-02-08T07:41:43;-5.30;96.40
814;DHT22;389;48.710;9.392;2023-02-08T07:44:09;-5.20;96.40
814;DHT22;389;48.710;9.392;2023-02-08T07:46:35;-5.10;96.50
814;DHT22;389;48.710;9.392;2023-02-08T07:49:00;-5.10;96.50
814;DHT22;389;48.710;9.392;2023-02-08T07:51:26;-5.00;96.50
814;DHT22;389;48.710;9.392;2023-02-08T07:53:51;-4.90;96.60
814;DHT22;389;48.710;9.392;2023-02-08T07:56:17;-4.80;96.60
814;DHT22;389;48.710;9.392;2023-02-08T07:58:43;-4.70;96.60
814;DHT22;389;48.710;9.392;2023-02-08T08:01:09;-4.60;96.70
814;DHT22;389;48.710;9.392;2023-02-08T08:03:34;-4.50;96.70
814;DHT22;389;48.710;9.392;2023-02-08T08:06:00;-4.40;96.70
814;DHT22;389;48.710;9.392;2023-02-08T08:08:25;-4.30;96.80
814;DHT22;389;48.710;9.392;2023-02-08T08:10:51;-4.20;96.70
814;DHT22;389;48.710;9.392;2023-02-08T08:13:17;-4.10;96.50
814;DHT22;389;48.710;9.392;2023-02-08T08:15:42;-4.00;96.20
814;DHT22;389;48.710;9.392;2023-02-08T08:18:08;-3.90;96.30
814;DHT22;389;48.710;9.392;2023-02-08T08:20:33;-3.70;96.30
814;DHT22;389;48.710;9.392;2023-02-08T08:23:00;-3.50;95.70
814;DHT22;389;48.710;9.392;2023-02-08T08:25:25;-3.40;95.80
814;DHT22;389;48.710;9.392;2023-02-08T08:27:52;-3.30;95.60
814;DHT22;389;48.710;9.392;2023-02-08T08:30:18;-3.10;95.40
814;DHT22;389;48.710;9.392;2023-02-08T08:32:43;-2.90;95.20
814;DHT22;389;48.710;9.392;2023-02-08T08:35:09;-2.80;95.00
814;DHT22;389;48.710;9.392;2023-02-08T08:37:35;-2.70;93.30
814;DHT22;389;48.710;9.392;2023-02-08T08:40:02;-2.40;91.90
814;DHT22;389;48.710;9.392;2023-02-08T08:42:28;-2.20;90.70
814;DHT22;389;48.710;9.392;2023-02-08T08:44:54;-2.00;87.60
814;DHT22;389;48.710;9.392;2023-02-08T08:47:19;-1.80;84.50
814;DHT22;389;48.710;9.392;2023-02-08T08:49:45;-1.50;82.00
814;DHT22;389;48.710;9.392;2023-02-08T08:52:11;-1.30;81.00
814;DHT22;389;48.710;9.392;2023-02-08T08:54:37;-1.10;80.40
814;DHT22;389;48.710;9.392;2023-02-08T08:57:03;-0.90;79.00
814;DHT22;389;48.710;9.392;2023-02-08T08:59:29;-0.70;78.80
814;DHT22;389;48.710;9.392;2023-02-08T09:01:54;-0.50;77.10
814;DHT22;389;48.710;9.392;2023-02-08T09:04:20;-0.40;76.10
814;DHT22;389;48.710;9.392;2023-02-08T09:06:48;-0.20;75.80
814;DHT22;389;48.710;9.392;2023-02-08T09:09:14;-0.10;74.90
814;DHT22;389;48.710;9.392;2023-02-08T09:11:39;0.10;73.40
814;DHT22;389;48.710;9.392;2023-02-08T09:14:05;0.20;73.40
814;DHT22;389;48.710;9.392;2023-02-08T09:16:31;0.40;72.40
814;DHT22;389;48.710;9.392;2023-02-08T09:19:00;0.50;71.30
814;DHT22;389;48.710;9.392;2023-02-08T09:21:26;0.60;70.70
814;DHT22;389;48.710;9.392;2023-02-08T09:23:52;0.70;70.00
814;DHT22;389;48.710;9.392;2023-02-08T09:26:18;0.90;69.60
814;DHT22;389;48.710;9.392;2023-02-08T09:28:44;1.00;69.40
814;DHT22;389;48.710;9.392;2023-02-08T09:31:24;1.10;69.90
814;DHT22;389;48.710;9.392;2023-02-08T09:33:51;1.20;69.00
814;DHT22;389;48.710;9.392;2023-02-08T09:36:17;1.30;69.10
814;DHT22;389;48.710;9.392;2023-02-08T09:38:44;1.30;68.40
814;DHT22;389;48.710;9.392;2023-02-08T09:46:26;1.60;67.30
814;DHT22;389;48.710;9.392;2023-02-08T09:48:56;1.70;66.90
814;DHT22;389;48.710;9.392;2023-02-08T09:51:50;1.70;66.70
814;DHT22;389;48.710;9.392;2023-02-08T09:56:55;1.90;66.70
814;DHT22;389;48.710;9.392;2023-02-08T09:59:25;2.10;66.70
814;DHT22;389;48.710;9.392;2023-02-08T10:02:18;2.20;66.40
814;DHT22;389;48.710;9.392;2023-02-08T10:05:03;2.30;66.50
814;DHT22;389;48.710;9.392;2023-02-08T10:07:30;2.40;66.30
814;DHT22;389;48.710;9.392;2023-02-08T10:10:03;2.50;65.20
814;DHT22;389;48.710;9.392;2023-02-08T10:15:28;2.60;64.50
814;DHT22;389;48.710;9.392;2023-02-08T10:21:06;2.70;63.20
814;DHT22;389;48.710;9.392;2023-02-08T10:34:45;3.00;62.10
814;DHT22;389;48.710;9.392;2023-02-08T10:37:29;3.10;62.70
814;DHT22;389;48.710;9.392;2023-02-08T10:40:02;3.20;62.40
814;DHT22;389;48.710;9.392;2023-02-08T10:42:29;3.20;61.50
814;DHT22;389;48.710;9.392;2023-02-08T10:45:03;3.30;60.90
814;DHT22;389;48.710;9.392;2023-02-08T10:47:41;3.30;60.70
814;DHT22;389;48.710;9.392;2023-02-08T10:50:37;3.30;60.90
814;DHT22;389;48.710;9.392;2023-02-08T10:53:04;3.40;61.10
814;DHT22;389;48.710;9.392;2023-02-08T10:55:31;3.40;60.90
814;DHT22;389;48.710;9.392;2023-02-08T10:58:01;3.50;60.10
814;DHT22;389;48.710;9.392;2023-02-08T11:00:31;3.60;60.90
814;DHT22;389;48.710;9.392;2023-02-08T11:03:01;3.60;61.00
814;DHT22;389;48.710;9.392;2023-02-08T11:05:36;3.60;60.50
814;DHT22;389;48.710;9.392;2023-02-08T11:08:13;3.70;61.00
814;DHT22;389;48.710;9.392;2023-02-08T11:11:01;3.80;61.00
814;DHT22;389;48.710;9.392;2023-02-08T11:13:34;3.90;60.70
814;DHT22;389;48.710;9.392;2023-02-08T11:16:03;4.00;60.00
814;DHT22;389;48.710;9.392;2023-02-08T11:18:35;4.00;60.50
814;DHT22;389;48.710;9.392;2023-02-08T11:21:04;4.10;59.90
814;DHT22;389;48.710;9.392;2023-02-08T11:23:36;4.10;59.60
814;DHT22;389;48.710;9.392;2023-02-08T11:28:58;4.20;60.20
814;DHT22;389;48.710;9.392;2023-02-08T11:31:24;4.30;60.40
814;DHT22;389;48.710;9.392;2023-02-08T11:34:07;4.30;60.00
814;DHT22;389;48.710;9.392;2023-02-08T11:36:35;4.40;60.00
814;DHT22;389;48.710;9.392;2023-02-08T11:39:13;4.40;59.90
814;DHT22;389;48.710;9.392;2023-02-08T11:41:46;4.50;59.90
814;DHT22;389;48.710;9.392;2023-02-08T11:44:26;4.50;59.60
814;DHT22;389;48.710;9.392;2023-02-08T11:46:56;4.50;59.60
814;DHT22;389;48.710;9.392;2023-02-08T11:49:28;4.50;59.70
814;DHT22;389;48.710;9.392;2023-02-08T11:51:56;4.60;58.90
814;DHT22;389;48.710;9.392;2023-02-08T11:54:39;4.60;58.80
814;DHT22;389;48.710;9.392;2023-02-08T11:57:13;4.60;59.00
814;DHT22;389;48.710;9.392;2023-02-08T11:59:39;4.60;59.10
814;DHT22;389;48.710;9.392;2023-02-08T12:04:55;4.70;59.90
814;DHT22;389;48.710;9.392;2023-02-08T12:18:52;4.80;60.30
814;DHT22;389;48.710;9.392;2023-02-08T12:21:27;4.80;60.00
814;DHT22;389;48.710;9.392;2023-02-08T12:24:01;4.90;60.20
814;DHT22;389;48.710;9.392;2023-02-08T12:29:03;4.90;59.80
814;DHT22;389;48.710;9.392;2023-02-08T12:31:56;4.90;59.70
814;DHT22;389;48.710;9.392;2023-02-08T12:34:49;4.90;60.00
814;DHT22;389;48.710;9.392;2023-02-08T12:40:27;5.00;60.00
814;DHT22;389;48.710;9.392;2023-02-08T12:46:40;5.00;59.70
814;DHT22;389;48.710;9.392;2023-02-08T12:49:26;5.10;60.20
814;DHT22;389;48.710;9.392;2023-02-08T12:54:45;5.10;59.90
814;DHT22;389;48.710;9.392;2023-02-08T12:57:15;5.20;59.80
814;DHT22;389;48.710;9.392;2023-02-08T13:00:34;5.20;59.90
814;DHT22;389;48.710;9.392;2023-02-08T13:03:13;5.20;59.60
814;DHT22;389;48.710;9.392;2023-02-08T13:05:45;5.30;59.60
814;DHT22;389;48.710;9.392;2023-02-08T13:08:40;5.30;59.70
814;DHT22;389;48.710;9.392;2023-02-08T13:12:01;5.30;59.90
814;DHT22;389;48.710;9.392;2023-02-08T13:14:28;5.30;59.90
814;DHT22;389;48.710;9.392;2023-02-08T13:17:02;5.30;60.30
814;DHT22;389;48.710;9.392;2023-02-08T13:19:37;5.20;59.90
814;DHT22;389;48.710;9.392;2023-02-08T13:22:08;5.30;59.80
814;DHT22;389;48.710;9.392;2023-02-08T13:24:41;5.30;59.80
814;DHT22;389;48.710;9.392;2023-02-08T13:27:18;5.20;59.70
814;DHT22;389;48.710;9.392;2023-02-08T13:29:46;5.20;59.60
814;DHT22;389;48.710;9.392;2023-02-08T13:34:53;5.10;59.80
814;DHT22;389;48.710;9.392;2023-02-08T13:37:26;5.10;59.80
814;DHT22;389;48.710;9.392;2023-02-08T13:40:04;5.10;60.10
814;DHT22;389;48.710;9.392;2023-02-08T13:42:39;5.10;60.10
814;DHT22;389;48.710;9.392;2023-02-08T13:45:08;5.10;60.30
814;DHT22;389;48.710;9.392;2023-02-08T13:47:43;5.10;60.40
814;DHT22;389;48.710;9.392;2023-02-08T13:50:41;5.10;60.60
814;DHT22;389;48.710;9.392;2023-02-08T13:53:08;5.30;60.90
814;DHT22;389;48.710;9.392;2023-02-08T13:58:34;5.00;61.00
814;DHT22;389;48.710;9.392;2023-02-08T14:01:14;5.10;61.50
814;DHT22;389;48.710;9.392;2023-02-08T14:03:41;5.00;61.50
814;DHT22;389;48.710;9.392;2023-02-08T14:06:20;5.00;62.40
814;DHT22;389;48.710;9.392;2023-02-08T14:09:19;5.00;61.80
814;DHT22;389;48.710;9.392;2023-02-08T14:11:49;4.90;62.00
814;DHT22;389;48.710;9.392;2023-02-08T14:14:24;4.90;62.10
814;DHT22;389;48.710;9.392;2023-02-08T14:19:39;4.90;62.30
814;DHT22;389;48.710;9.392;2023-02-08T14:24:58;4.90;62.60
814;DHT22;389;48.710;9.392;2023-02-08T14:27:36;4.80;63.00
814;DHT22;389;48.710;9.392;2023-02-08T14:32:32;4.80;62.80
814;DHT22;389;48.710;9.392;2023-02-08T14:37:29;4.80;63.20
814;DHT22;389;48.710;9.392;2023-02-08T14:45:45;4.70;62.90
814;DHT22;389;48.710;9.392;2023-02-08T14:48:31;4.70;62.80
814;DHT22;389;48.710;9.392;2023-02-08T14:56:27;4.60;64.00
814;DHT22;389;48.710;9.392;2023-02-08T14:59:14;4.60;63.50
814;DHT22;389;48.710;9.392;2023-02-08T15:01:45;4.50;63.40
814;DHT22;389;48.710;9.392;2023-02-08T15:04:13;4.50;63.60
814;DHT22;389;48.710;9.392;2023-02-08T15:09:36;4.50;64.00
814;DHT22;389;48.710;9.392;2023-02-08T15:12:07;4.40;63.80
814;DHT22;389;48.710;9.392;2023-02-08T15:14:39;4.40;63.90
814;DHT22;389;48.710;9.392;2023-02-08T15:17:05;4.30;63.70
814;DHT22;389;48.710;9.392;2023-02-08T15:19:34;4.20;63.60
814;DHT22;389;48.710;9.392;2023-02-08T15:22:17;4.20;63.90
814;DHT22;389;48.710;9.392;2023-02-08T15:27:48;4.10;64.20
814;DHT22;389;48.710;9.392;2023-02-08T15:30:30;4.00;64.00
814;DHT22;389;48.710;9.392;2023-02-08T15:32:57;4.00;64.50
814;DHT22;389;48.710;9.392;2023-02-08T15:35:23;4.00;64.70
814;DHT22;389;48.710;9.392;2023-02-08T15:37:51;3.90;64.80
814;DHT22;389;48.710;9.392;2023-02-08T15:40:57;3.80;65.00
814;DHT22;389;48.710;9.392;2023-02-08T15:43:23;3.70;64.90
814;DHT22;389;48.710;9.392;2023-02-08T15:45:57;3.70;65.20
814;DHT22;389;48.710;9.392;2023-02-08T15:48:24;3.60;65.20
814;DHT22;389;48.710;9.392;2023-02-08T15:50:51;3.50;65.80
814;DHT22;389;48.710;9.392;2023-02-08T15:53:18;3.50;65.80
814;DHT22;389;48.710;9.392;2023-02-08T15:55:56;3.40;66.10
814;DHT22;389;48.710;9.392;2023-02-08T16:00:54;3.20;67.20
814;DHT22;389;48.710;9.392;2023-02-08T16:03:22;3.20;66.80
814;DHT22;389;48.710;9.392;2023-02-08T16:05:58;3.10;66.90
814;DHT22;389;48.710;9.392;2023-02-08T16:08:26;3.00;67.10
814;DHT22;389;48.710;9.392;2023-02-08T16:10:56;2.90;67.40
814;DHT22;389;48.710;9.392;2023-02-08T16:13:26;3.00;68.00
814;DHT22;389;48.710;9.392;2023-02-08T16:18:42;2.70;68.50
814;DHT22;389;48.710;9.392;2023-02-08T16:21:21;2.60;68.50
814;DHT22;389;48.710;9.392;2023-02-08T16:23:56;2.50;68.70
814;DHT22;389;48.710;9.392;2023-02-08T16:26:28;2.40;69.30
814;DHT22;389;48.710;9.392;2023-02-08T16:28:59;2.30;69.70
814;DHT22;389;48.710;9.392;2023-02-08T16:31:27;2.30;69.70
814;DHT22;389;48.710;9.392;2023-02-08T16:34:06;2.30;69.80
814;DHT22;389;48.710;9.392;2023-02-08T16:36:40;2.00;69.80
814;DHT22;389;48.710;9.392;2023-02-08T16:44:28;1.70;71.70
814;DHT22;389;48.710;9.392;2023-02-08T16:46:55;1.60;72.20
814;DHT22;389;48.710;9.392;2023-02-08T16:49:21;1.50;72.60
814;DHT22;389;48.710;9.392;2023-02-08T16:51:46;1.40;72.80
814;DHT22;389;48.710;9.392;2023-02-08T16:54:18;1.30;73.00
814;DHT22;389;48.710;9.392;2023-02-08T16:56:45;1.20;74.00
814;DHT22;389;48.710;9.392;2023-02-08T16:59:12;1.00;74.70
814;DHT22;389;48.710;9.392;2023-02-08T17:01:38;0.90;75.10
814;DHT22;389;48.710;9.392;2023-02-08T17:04:04;0.90;75.20
814;DHT22;389;48.710;9.392;2023-02-08T17:06:32;0.80;75.20
814;DHT22;389;48.710;9.392;2023-02-08T17:08:59;0.70;75.40
814;DHT22;389;48.710;9.392;2023-02-08T17:11:25;0.60;75.70
814;DHT22;389;48.710;9.392;2023-02-08T17:13:51;0.50;76.10
814;DHT22;389;48.710;9.392;2023-02-08T17:16:20;0.40;76.40
814;DHT22;389;48.710;9.392;2023-02-08T17:18:47;0.30;76.80
814;DHT22;389;48.710;9.392;2023-02-08T17:21:13;0.20;77.40
814;DHT22;389;48.710;9.392;2023-02-08T17:23:39;0.10;77.90
814;DHT22;389;48.710;9.392;2023-02-08T17:26:17;0.00;78.50
814;DHT22;389;48.710;9.392;2023-02-08T17:28:44;0.00;78.90
814;DHT22;389;48.710;9.392;2023-02-08T17:31:11;-0.10;79.40
814;DHT22;389;48.710;9.392;2023-02-08T17:33:37;-0.20;80.00
814;DHT22;389;48.710;9.392;2023-02-08T17:36:06;-0.30;80.30
814;DHT22;389;48.710;9.392;2023-02-08T17:38:34;-0.40;80.40
814;DHT22;389;48.710;9.392;2023-02-08T17:41:06;-0.40;80.70
814;DHT22;389;48.710;9.392;2023-02-08T17:43:34;-0.50;81.40
814;DHT22;389;48.710;9.392;2023-02-08T17:46:06;-0.50;81.90
814;DHT22;389;48.710;9.392;2023-02-08T17:48:32;-0.60;82.80
814;DHT22;389;48.710;9.392;2023-02-08T17:50:58;-0.70;83.40
814;DHT22;389;48.710;9.392;2023-02-08T17:53:24;-0.70;84.20
814;DHT22;389;48.710;9.392;2023-02-08T17:55:50;-0.80;84.60
814;DHT22;389;48.710;9.392;2023-02-08T17:58:16;-0.80;85.10
814;DHT22;389;48.710;9.392;2023-02-08T18:00:42;-0.80;85.70
814;DHT22;389;48.710;9.392;2023-02-08T18:03:09;-0.80;86.00
814;DHT22;389;48.710;9.392;2023-02-08T18:05:36;-0.80;86.30
814;DHT22;389;48.710;9.392;2023-02-08T18:08:02;-0.80;86.40
814;DHT22;389;48.710;9.392;2023-02-08T18:10:28;-0.80;86.40
814;DHT22;389;48.710;9.392;2023-02-08T18:12:54;-0.90;86.40
814;DHT22;389;48.710;9.392;2023-02-08T18:15:21;-0.80;86.50
814;DHT22;389;48.710;9.392;2023-02-08T18:17:47;-0.80;86.50
814;DHT22;389;48.710;9.392;2023-02-08T18:20:15;-0.70;86.60
814;DHT22;389;48.710;9.392;2023-02-08T18:22:42;-0.70;86.30
814;DHT22;389;48.710;9.392;2023-02-08T18:25:09;-0.70;86.00
814;DHT22;389;48.710;9.392;2023-02-08T18:27:35;-0.60;85.60
814;DHT22;389;48.710;9.392;2023-02-08T18:30:01;-0.50;85.40
814;DHT22;389;48.710;9.392;2023-02-08T18:32:27;-0.50;85.00
814;DHT22;389;48.710;9.392;2023-02-08T18:34:56;-0.40;84.70
814;DHT22;389;48.710;9.392;2023-02-08T18:37:22;-0.40;84.40
814;DHT22;389;48.710;9.392;2023-02-08T18:39:48;-0.30;84.20
814;DHT22;389;48.710;9.392;2023-02-08T18:42:14;-0.30;84.10
814;DHT22;389;48.710;9.392;2023-02-08T18:44:40;-0.30;84.00
814;DHT22;389;48.710;9.392;2023-02-08T18:47:07;-0.30;83.90
814;DHT22;389;48.710;9.392;2023-02-08T18:49:33;-0.30;83.90
814;DHT22;389;48.710;9.392;2023-02-08T18:52:08;-0.30;84.00
814;DHT22;389;48.710;9.392;2023-02-08T18:54:38;-0.30;84.50
814;DHT22;389;48.710;9.392;2023-02-08T18:57:04;-0.30;83.90
814;DHT22;389;48.710;9.392;2023-02-08T18:59:34;-0.40;83.90
814;DHT22;389;48.710;9.392;2023-02-08T19:02:00;-0.40;83.90
814;DHT22;389;48.710;9.392;2023-02-08T19:04:26;-0.40;83.90
814;DHT22;389;48.710;9.392;2023-02-08T19:06:52;-0.40;83.80
814;DHT22;389;48.710;9.392;2023-02-08T19:09:19;-0.40;83.80
814;DHT22;389;48.710;9.392;2023-02-08T19:11:45;-0.40;83.90
814;DHT22;389;48.710;9.392;2023-02-08T19:14:13;-0.40;83.90
814;DHT22;389;48.710;9.392;2023-02-08T19:16:41;-0.60;83.60
814;DHT22;389;48.710;9.392;2023-02-08T19:19:08;-0.50;83.70